createdAt,value
2023-02-13T00:01:20.539Z,64.81
2023-02-13T00:04:25.200Z,64.93
2023-02-13T00:07:31.486Z,65.06
2023-02-13T00:10:35.972Z,65.04
2023-02-13T00:13:42.240Z,65.07
2023-02-13T00:16:48.523Z,64.85
2023-02-13T00:19:53.148Z,64.82
2023-02-13T00:22:59.333Z,64.89
2023-02-13T00:26:10.857Z,64.76
2023-02-13T00:29:17.079Z,64.83
2023-02-13T00:32:23.231Z,64.84
2023-02-13T00:35:29.533Z,64.87
2023-02-13T00:38:34.221Z,64.97
2023-02-13T00:41:41.144Z,65.38
2023-02-13T00:44:47.385Z,65.42
2023-02-13T00:47:53.560Z,65.64
2023-02-13T00:51:00.536Z,65.57
2023-02-13T00:54:07.507Z,65.69
2023-02-13T00:57:13.691Z,65.60
2023-02-13T01:00:21.369Z,65.65
2023-02-13T01:03:28.020Z,65.39
2023-02-13T01:06:34.299Z,64.96
2023-02-13T01:09:40.778Z,65.05
2023-02-13T01:12:47.187Z,65.38
2023-02-13T01:15:51.817Z,65.22
2023-02-13T01:18:58.027Z,65.23
2023-02-13T01:22:04.269Z,65.33
2023-02-13T01:25:09.524Z,65.43
2023-02-13T01:28:15.846Z,65.40
2023-02-13T01:31:20.433Z,65.03
2023-02-13T01:34:26.766Z,64.93
2023-02-13T01:37:33.153Z,64.77
2023-02-13T01:40:37.662Z,64.73
2023-02-13T01:43:55.445Z,64.74
2023-02-13T01:47:01.727Z,64.25
2023-02-13T01:50:12.557Z,64.22
2023-02-13T01:53:23.350Z,64.30
2023-02-13T01:56:34.649Z,64.12
2023-02-13T01:59:48.732Z,63.90
2023-02-13T02:02:59.441Z,63.46
2023-02-13T02:06:06.292Z,63.55
2023-02-13T02:09:16.026Z,63.83
2023-02-13T02:12:27.593Z,63.80
2023-02-13T02:15:33.986Z,63.57
2023-02-13T02:18:38.448Z,63.64
2023-02-13T02:22:01.789Z,63.94
2023-02-13T02:25:27.241Z,63.90
2023-02-13T02:29:15.930Z,63.68
2023-02-13T02:32:40.333Z,63.63
2023-02-13T02:35:53.943Z,63.29
2023-02-13T02:39:09.450Z,63.36
2023-02-13T02:42:28.085Z,64.15
2023-02-13T02:45:41.081Z,64.15
2023-02-13T02:49:12.668Z,64.02
2023-02-13T02:52:26.639Z,64.04
2023-02-13T02:55:38.401Z,63.95
2023-02-13T02:59:06.590Z,63.97
2023-02-13T03:02:42.752Z,64.07
2023-02-13T03:06:09.394Z,64.21
2023-02-13T03:09:37.987Z,64.24
2023-02-13T03:13:08.132Z,64.08
2023-02-13T03:16:32.007Z,64.08
2023-02-13T03:20:11.738Z,63.93
2023-02-13T03:23:24.416Z,64.03
2023-02-13T03:26:50.605Z,64.00
2023-02-13T03:30:09.654Z,64.14
2023-02-13T03:33:28.952Z,63.98
2023-02-13T03:37:02.352Z,64.18
2023-02-13T03:40:14.305Z,63.98
2023-02-13T03:43:23.155Z,63.95
2023-02-13T03:46:32.135Z,63.86
2023-02-13T03:50:00.787Z,63.76
2023-02-13T03:53:10.969Z,63.69
2023-02-13T03:56:38.292Z,63.68
2023-02-13T03:59:45.010Z,63.76
2023-02-13T04:02:59.923Z,63.67
2023-02-13T04:06:10.116Z,63.60
2023-02-13T04:09:18.842Z,63.54
2023-02-13T04:12:33.256Z,63.43
2023-02-13T04:15:43.653Z,63.20
2023-02-13T04:18:53.418Z,62.93
2023-02-13T04:22:02.392Z,62.86
2023-02-13T04:25:09.704Z,62.78
2023-02-13T04:28:16.014Z,62.75
2023-02-13T04:31:20.731Z,62.89
2023-02-13T04:34:27.096Z,63.19
2023-02-13T04:37:31.702Z,63.08
2023-02-13T04:40:38.016Z,63.33
2023-02-13T04:43:42.622Z,63.59
2023-02-13T04:46:48.908Z,63.93
2023-02-13T04:49:55.092Z,64.08
2023-02-13T04:53:01.706Z,64.19
2023-02-13T04:56:08.401Z,64.43
2023-02-13T04:59:14.672Z,64.95
2023-02-13T05:02:21.006Z,65.27
2023-02-13T05:05:25.543Z,65.19
2023-02-13T05:08:31.757Z,65.26
2023-02-13T05:11:37.999Z,64.80
2023-02-13T05:14:44.171Z,64.43
2023-02-13T05:17:50.619Z,64.39
2023-02-13T05:21:14.796Z,64.53
2023-02-13T05:24:21.082Z,65.56
2023-02-13T05:27:27.308Z,66.66
2023-02-13T05:30:32.118Z,67.31
2023-02-13T05:33:38.425Z,67.64
2023-02-13T05:36:42.988Z,67.82
2023-02-13T05:39:49.956Z,68.56
2023-02-13T05:42:57.143Z,68.91
2023-02-13T05:46:08.649Z,69.19
2023-02-13T05:49:16.517Z,69.58
2023-02-13T05:52:22.705Z,69.96
2023-02-13T05:55:28.830Z,70.18
2023-02-13T05:58:35.773Z,70.10
2023-02-13T06:01:42.021Z,70.20
2023-02-13T06:04:48.294Z,70.17
2023-02-13T06:07:54.483Z,70.48
2023-02-13T06:11:01.064Z,70.43
2023-02-13T06:14:07.718Z,70.55
2023-02-13T06:17:13.932Z,70.57
2023-02-13T06:20:20.507Z,70.50
2023-02-13T06:23:26.693Z,70.46
2023-02-13T06:26:32.886Z,70.48
2023-02-13T06:29:39.168Z,70.53
2023-02-13T06:32:47.214Z,70.54
2023-02-13T06:35:54.194Z,70.52
2023-02-13T06:39:00.409Z,70.69
2023-02-13T06:42:06.615Z,70.62
2023-02-13T06:45:13.607Z,70.90
2023-02-13T06:48:19.849Z,70.99
2023-02-13T06:51:26.155Z,70.95
2023-02-13T06:54:45.976Z,71.01
2023-02-13T06:57:53.437Z,71.41
2023-02-13T07:01:00.005Z,71.42
2023-02-13T07:04:06.566Z,71.36
2023-02-13T07:07:11.096Z,71.41
2023-02-13T07:10:17.860Z,71.51
2023-02-13T07:13:24.173Z,71.62
2023-02-13T07:16:28.686Z,71.54
2023-02-13T07:19:35.293Z,71.89
2023-02-13T07:22:41.515Z,71.79
2023-02-13T07:25:47.784Z,71.80
2023-02-13T07:29:09.262Z,71.67
2023-02-13T07:32:17.087Z,71.54
2023-02-13T07:35:21.788Z,71.51
2023-02-13T07:38:28.047Z,71.50
2023-02-13T07:41:34.351Z,71.45
2023-02-13T07:44:38.889Z,71.52
2023-02-13T07:47:45.119Z,71.65
2023-02-13T07:50:51.794Z,71.45
2023-02-13T07:53:58.505Z,71.36
2023-02-13T07:57:05.262Z,71.37
2023-02-13T08:00:13.720Z,71.46
2023-02-13T08:03:19.931Z,71.57
2023-02-13T08:06:26.591Z,71.43
2023-02-13T08:09:50.109Z,71.48
2023-02-13T08:12:56.745Z,71.68
2023-02-13T08:16:03.088Z,71.54
2023-02-13T08:19:07.533Z,71.65
2023-02-13T08:22:13.791Z,71.92
2023-02-13T08:25:19.038Z,71.99
2023-02-13T08:28:25.356Z,72.17
2023-02-13T08:31:29.951Z,72.23
2023-02-13T08:34:36.289Z,72.22
2023-02-13T08:37:42.584Z,72.11
2023-02-13T08:40:47.144Z,72.17
2023-02-13T08:43:55.041Z,72.30
2023-02-13T08:47:04.087Z,71.45
2023-02-13T08:50:12.148Z,71.21
2023-02-13T08:53:18.552Z,70.61
2023-02-13T08:56:24.754Z,70.77
2023-02-13T08:59:30.915Z,70.43
2023-02-13T09:02:37.423Z,69.23
2023-02-13T09:05:43.668Z,68.96
2023-02-13T09:08:49.897Z,68.88
2023-02-13T09:11:58.092Z,68.54
2023-02-13T09:15:05.074Z,68.29
2023-02-13T09:18:11.336Z,68.01
2023-02-13T09:21:18.017Z,68.23
2023-02-13T09:24:24.182Z,67.85
2023-02-13T09:27:30.453Z,67.51
2023-02-13T09:30:34.964Z,67.33
2023-02-13T09:33:41.610Z,67.02
2023-02-13T09:36:47.891Z,66.84
2023-02-13T09:39:54.824Z,66.45
2023-02-13T09:43:09.665Z,66.55
2023-02-13T09:46:20.261Z,65.90
2023-02-13T09:49:32.000Z,66.08
2023-02-13T09:52:39.974Z,65.01
2023-02-13T09:55:53.764Z,64.84
2023-02-13T09:59:04.794Z,64.11
2023-02-13T10:02:27.135Z,64.16
2023-02-13T10:05:49.024Z,64.38
2023-02-13T10:09:07.710Z,64.40
2023-02-13T10:12:29.487Z,64.79
2023-02-13T10:15:44.121Z,63.61
2023-02-13T10:18:54.977Z,63.32
2023-02-13T10:22:06.031Z,63.23
2023-02-13T10:25:18.643Z,63.10
2023-02-13T10:28:33.645Z,62.58
2023-02-13T10:31:40.781Z,62.23
2023-02-13T10:34:48.513Z,62.12
2023-02-13T10:37:58.868Z,62.33
2023-02-13T10:41:26.708Z,62.03
2023-02-13T10:44:50.016Z,60.74
2023-02-13T10:48:07.730Z,60.56
2023-02-13T10:51:20.461Z,60.45
2023-02-13T10:54:47.920Z,60.10
2023-02-13T10:58:09.452Z,60.16
2023-02-13T11:01:23.420Z,59.87
2023-02-13T11:04:30.342Z,58.51
2023-02-13T11:07:39.560Z,59.55
2023-02-13T11:10:45.933Z,61.42
2023-02-13T11:14:11.641Z,62.38
2023-02-13T11:17:20.485Z,61.67
2023-02-13T11:20:33.140Z,61.65
2023-02-13T11:23:43.619Z,61.52
2023-02-13T11:26:54.575Z,61.42
2023-02-13T11:30:03.378Z,61.43
2023-02-13T11:33:25.295Z,61.63
2023-02-13T11:36:33.465Z,60.90
2023-02-13T11:39:40.079Z,60.29
2023-02-13T11:42:49.073Z,60.49
2023-02-13T11:46:07.053Z,60.42
2023-02-13T11:49:20.179Z,60.29
2023-02-13T11:52:30.633Z,60.00
2023-02-13T11:55:38.897Z,60.24
2023-02-13T11:58:45.761Z,60.38
2023-02-13T12:02:05.776Z,60.70
2023-02-13T12:05:22.336Z,60.75
2023-02-13T12:08:29.062Z,60.78
2023-02-13T12:11:43.294Z,60.88
2023-02-13T12:14:50.745Z,61.01
2023-02-13T12:18:07.083Z,60.25
2023-02-13T12:21:29.564Z,60.12
2023-02-13T12:24:48.782Z,60.05
2023-02-13T12:28:04.513Z,60.01
2023-02-13T12:31:43.251Z,58.97
2023-02-13T12:35:20.380Z,59.01
2023-02-13T12:38:47.597Z,60.92
2023-02-13T12:42:05.885Z,64.27
2023-02-13T12:45:34.761Z,65.09
2023-02-13T12:48:50.678Z,64.85
2023-02-13T12:52:10.092Z,64.51
2023-02-13T12:55:36.552Z,64.69
2023-02-13T12:59:05.768Z,64.22
2023-02-13T13:02:51.121Z,64.58
2023-02-13T13:06:20.361Z,64.45
2023-02-13T13:09:45.634Z,64.33
2023-02-13T13:13:00.388Z,64.23
2023-02-13T13:16:16.753Z,63.96
2023-02-13T13:19:32.496Z,63.85
2023-02-13T13:22:46.439Z,63.59
2023-02-13T13:26:00.692Z,63.45
2023-02-13T13:29:13.194Z,63.34
2023-02-13T13:32:22.957Z,63.25
2023-02-13T13:35:30.130Z,63.08
2023-02-13T13:38:44.240Z,63.04
2023-02-13T13:41:58.725Z,63.02
2023-02-13T13:45:34.203Z,63.06
2023-02-13T13:49:00.192Z,63.35
2023-02-13T13:52:28.652Z,62.89
2023-02-13T13:56:09.560Z,62.84
2023-02-13T13:59:41.976Z,62.78
2023-02-13T14:02:51.237Z,62.75
2023-02-13T14:06:07.371Z,62.70
2023-02-13T14:09:28.820Z,62.52
2023-02-13T14:12:50.095Z,62.63
2023-02-13T14:15:56.752Z,62.58
2023-02-13T14:19:03.102Z,62.67
2023-02-13T14:22:32.725Z,62.82
2023-02-13T14:25:38.949Z,63.31
2023-02-13T14:28:57.323Z,63.76
2023-02-13T14:32:16.984Z,63.89
2023-02-13T14:35:28.890Z,63.81
2023-02-13T14:38:36.054Z,64.09
2023-02-13T14:42:03.120Z,64.14
2023-02-13T14:45:17.695Z,64.52
2023-02-13T14:48:29.703Z,64.77
2023-02-13T14:51:41.595Z,65.07
2023-02-13T14:54:51.489Z,64.81
2023-02-13T14:58:13.062Z,64.97
2023-02-13T15:01:27.497Z,65.06
2023-02-13T15:04:42.312Z,65.01
2023-02-13T15:07:53.838Z,65.25
2023-02-13T15:11:00.703Z,65.27
2023-02-13T15:14:21.812Z,65.43
2023-02-13T15:17:31.045Z,65.50
2023-02-13T15:20:39.330Z,65.34
2023-02-13T15:23:51.038Z,65.22
2023-02-13T15:27:08.928Z,65.18
2023-02-13T15:30:25.430Z,65.35
2023-02-13T15:33:37.472Z,65.48
2023-02-13T15:36:50.282Z,65.77
2023-02-13T15:39:56.782Z,66.26
2023-02-13T15:43:03.704Z,66.44
2023-02-13T15:46:20.418Z,66.50
2023-02-13T15:49:28.114Z,66.50
2023-02-13T15:52:38.209Z,66.40
2023-02-13T15:55:56.699Z,66.58
2023-02-13T15:59:04.781Z,66.46
2023-02-13T16:02:16.521Z,66.59
2023-02-13T16:05:38.563Z,66.73
2023-02-13T16:08:52.893Z,66.66
2023-02-13T16:12:04.310Z,66.69
2023-02-13T16:15:19.601Z,66.50
2023-02-13T16:18:26.453Z,66.51
2023-02-13T16:21:35.968Z,66.48
2023-02-13T16:24:45.853Z,66.58
2023-02-13T16:27:53.733Z,66.53
2023-02-13T16:31:02.844Z,66.44
2023-02-13T16:34:25.058Z,66.61
2023-02-13T16:37:34.339Z,66.62
2023-02-13T16:40:43.308Z,66.67
2023-02-13T16:43:51.826Z,66.79
2023-02-13T16:47:07.586Z,66.97
2023-02-13T16:50:18.249Z,67.13
2023-02-13T16:53:24.464Z,67.35
2023-02-13T16:56:37.919Z,67.53
2023-02-13T16:59:54.718Z,67.69
2023-02-13T17:03:00.972Z,67.93
2023-02-13T17:06:08.084Z,67.94
2023-02-13T17:09:14.376Z,68.08
2023-02-13T17:12:19.812Z,68.27
2023-02-13T17:15:27.447Z,68.04
2023-02-13T17:18:33.772Z,67.92
2023-02-13T17:21:38.667Z,67.96
2023-02-13T17:24:44.946Z,67.90
2023-02-13T17:27:52.094Z,67.46
2023-02-13T17:31:00.783Z,67.20
2023-02-13T17:34:07.906Z,67.02
2023-02-13T17:37:19.924Z,66.80
2023-02-13T17:40:29.720Z,66.50
2023-02-13T17:43:36.019Z,66.23
2023-02-13T17:46:42.448Z,66.08
2023-02-13T17:49:49.959Z,66.15
2023-02-13T17:52:56.603Z,66.22
2023-02-13T17:56:02.901Z,66.29
2023-02-13T17:59:07.368Z,66.31
2023-02-13T18:02:16.298Z,66.41
2023-02-13T18:05:23.246Z,66.38
2023-02-13T18:08:29.605Z,66.36
2023-02-13T18:11:34.087Z,66.74
2023-02-13T18:14:40.394Z,67.00
2023-02-13T18:17:44.942Z,66.98
2023-02-13T18:20:58.527Z,67.14
2023-02-13T18:24:05.100Z,67.17
2023-02-13T18:27:12.628Z,67.25
2023-02-13T18:30:21.565Z,67.03
2023-02-13T18:33:27.929Z,66.76
2023-02-13T18:36:32.612Z,66.81
2023-02-13T18:39:39.018Z,67.03
2023-02-13T18:42:43.630Z,66.49
2023-02-13T18:45:49.904Z,66.55
2023-02-13T18:48:54.446Z,66.23
2023-02-13T18:52:01.707Z,66.15
2023-02-13T18:55:09.416Z,65.77
2023-02-13T18:58:15.681Z,65.74
2023-02-13T19:01:23.680Z,65.77
2023-02-13T19:04:30.054Z,65.78
2023-02-13T19:07:36.814Z,65.73
2023-02-13T19:10:43.081Z,65.70
2023-02-13T19:13:49.980Z,65.75
2023-02-13T19:16:56.150Z,65.76
2023-02-13T19:20:02.736Z,65.64
2023-02-13T19:23:08.945Z,65.54
2023-02-13T19:26:17.284Z,65.44
2023-02-13T19:29:23.465Z,65.28
2023-02-13T19:32:29.723Z,65.22
2023-02-13T19:35:34.313Z,65.06
2023-02-13T19:38:41.361Z,65.09
2023-02-13T19:41:47.534Z,64.99
2023-02-13T19:44:52.223Z,65.03
2023-02-13T19:47:58.526Z,65.05
2023-02-13T19:51:06.375Z,64.70
2023-02-13T19:54:14.678Z,64.85
2023-02-13T19:57:21.630Z,64.93
2023-02-13T20:00:27.969Z,64.95
2023-02-13T20:03:32.476Z,65.00
2023-02-13T20:06:40.056Z,64.92
2023-02-13T20:09:46.394Z,64.56
2023-02-13T20:12:53.839Z,64.25
2023-02-13T20:16:00.189Z,64.39
2023-02-13T20:19:09.021Z,63.89
2023-02-13T20:22:16.995Z,63.83
2023-02-13T20:25:23.401Z,63.52
2023-02-13T20:28:27.908Z,63.62
2023-02-13T20:31:36.777Z,63.66
2023-02-13T20:34:58.729Z,63.72
2023-02-13T20:38:06.366Z,63.84
2023-02-13T20:41:14.077Z,63.72
2023-02-13T20:44:22.523Z,63.73
2023-02-13T20:47:28.817Z,63.76
2023-02-13T20:50:33.344Z,63.64
2023-02-13T20:53:40.124Z,63.77
2023-02-13T20:56:47.632Z,63.91
2023-02-13T20:59:53.800Z,64.17
2023-02-13T21:03:34.615Z,64.13
2023-02-13T21:06:42.385Z,64.28
2023-02-13T21:09:48.544Z,64.19
2023-02-13T21:12:54.828Z,64.06
2023-02-13T21:16:06.269Z,63.90
2023-02-13T21:19:17.242Z,63.91
2023-02-13T21:22:23.501Z,63.78
2023-02-13T21:25:29.769Z,63.79
2023-02-13T21:28:36.450Z,63.82
2023-02-13T21:31:47.530Z,63.88
2023-02-13T21:34:55.525Z,63.89
2023-02-13T21:38:01.802Z,64.07
2023-02-13T21:41:09.817Z,64.28
2023-02-13T21:44:16.909Z,64.34
2023-02-13T21:47:23.293Z,64.43
2023-02-13T21:50:29.622Z,64.76
2023-02-13T21:53:34.188Z,64.72
2023-02-13T21:56:42.976Z,65.03
2023-02-13T21:59:49.453Z,65.02
2023-02-13T22:02:55.711Z,65.06
2023-02-13T22:06:00.219Z,65.27
2023-02-13T22:09:08.348Z,65.47
2023-02-13T22:12:14.418Z,65.59
2023-02-13T22:15:21.108Z,65.76
2023-02-13T22:18:27.427Z,65.99
2023-02-13T22:21:32.498Z,66.05
2023-02-13T22:24:38.715Z,66.21
2023-02-13T22:27:49.224Z,66.31
2023-02-13T22:30:55.899Z,66.50
2023-02-13T22:34:04.615Z,66.64
2023-02-13T22:37:12.809Z,66.48
2023-02-13T22:40:19.421Z,66.67
2023-02-13T22:43:25.575Z,66.82
2023-02-13T22:46:33.932Z,66.83
2023-02-13T22:49:40.142Z,66.54
2023-02-13T22:52:46.537Z,66.50
2023-02-13T22:55:52.792Z,66.28
2023-02-13T22:58:59.347Z,66.17
2023-02-13T23:02:06.054Z,66.09
2023-02-13T23:05:12.553Z,66.08
2023-02-13T23:08:18.777Z,65.99
2023-02-13T23:11:44.889Z,65.92
2023-02-13T23:14:51.148Z,65.98
2023-02-13T23:18:18.028Z,65.87
2023-02-13T23:21:25.013Z,65.73
2023-02-13T23:24:32.385Z,65.77
2023-02-13T23:27:39.248Z,65.72
2023-02-13T23:30:45.537Z,65.64
2023-02-13T23:33:50.033Z,65.63
2023-02-13T23:36:56.323Z,65.80
2023-02-13T23:40:00.836Z,65.64
2023-02-13T23:43:07.130Z,65.62
2023-02-13T23:46:11.755Z,65.42
2023-02-13T23:49:18.106Z,65.45
2023-02-13T23:52:22.696Z,65.32
2023-02-13T23:55:28.978Z,65.28
2023-02-13T23:58:33.641Z,65.18
